createdAt,value
2019-05-12T00:01:58.737Z,148199.84
2019-05-12T00:04:28.595Z,147870.95
2019-05-12T00:06:58.640Z,147564.42
2019-05-12T00:09:28.544Z,146628.83
2019-05-12T00:11:59.105Z,147142.06
2019-05-12T00:14:28.942Z,147305.22
2019-05-12T00:16:58.602Z,147868.44
2019-05-12T00:19:28.659Z,147867.20
2019-05-12T00:21:58.918Z,147880.92
2019-05-12T00:24:28.565Z,147845.92
2019-05-12T00:26:59.906Z,147850.95
2019-05-12T00:29:29.568Z,147687.72
2019-05-12T00:31:59.373Z,147840.94
2019-05-12T00:34:29.052Z,147695.22
2019-05-12T00:36:58.920Z,147204.34
2019-05-12T00:39:28.598Z,148085.89
2019-05-12T00:41:58.791Z,148205.00
2019-05-12T00:44:28.671Z,148608.95
2019-05-12T00:46:59.001Z,148792.11
2019-05-12T00:49:29.085Z,148411.94
2019-05-12T00:51:59.135Z,148425.78
2019-05-12T00:54:28.811Z,148182.41
2019-05-12T00:56:58.667Z,148799.67
2019-05-12T00:59:28.391Z,148613.97
2019-05-12T01:01:58.645Z,148265.22
2019-05-12T01:04:29.106Z,147915.28
2019-05-12T01:06:59.088Z,147720.94
2019-05-12T01:09:28.884Z,147534.14
2019-05-12T01:11:59.077Z,147547.89
2019-05-12T01:14:28.744Z,147387.37
2019-05-12T01:16:58.504Z,147213.09
2019-05-12T01:19:28.870Z,147064.92
2019-05-12T01:21:58.881Z,146348.03
2019-05-12T01:24:28.535Z,146199.75
2019-05-12T01:26:58.398Z,145145.87
2019-05-12T01:29:28.334Z,144639.31
2019-05-12T01:32:02.366Z,143729.72
2019-05-12T01:34:32.028Z,144081.52
2019-05-12T01:37:15.493Z,143869.73
2019-05-12T01:39:45.151Z,143867.28
2019-05-12T01:42:14.867Z,143842.97
2019-05-12T01:44:44.523Z,144037.69
2019-05-12T01:47:14.172Z,143890.39
2019-05-12T01:49:43.831Z,143369.55
2019-05-12T01:52:13.551Z,142645.81
2019-05-12T01:54:43.211Z,142663.92
2019-05-12T01:57:12.858Z,141843.42
2019-05-12T01:59:44.064Z,140752.28
2019-05-12T02:02:13.726Z,140140.73
2019-05-12T02:05:01.249Z,141439.33
2019-05-12T02:07:32.603Z,140918.95
2019-05-12T02:10:02.333Z,140015.56
2019-05-12T02:12:31.995Z,139665.77
2019-05-12T02:15:01.657Z,140006.11
2019-05-12T02:17:31.310Z,139909.25
2019-05-12T02:20:00.976Z,138724.50
2019-05-12T02:22:30.659Z,137190.06
2019-05-12T02:25:00.292Z,136502.25
2019-05-12T02:27:29.961Z,135085.83
2019-05-12T02:29:59.622Z,135458.14
2019-05-12T02:32:37.608Z,134730.80
2019-05-12T02:35:00.803Z,134575.50
2019-05-12T02:37:30.542Z,134763.81
2019-05-12T02:40:00.192Z,134711.45
2019-05-12T02:42:31.138Z,134830.23
2019-05-12T02:45:00.875Z,135307.09
2019-05-12T02:47:30.529Z,135982.39
2019-05-12T02:50:00.179Z,136638.05
2019-05-12T02:52:29.850Z,138295.16
2019-05-12T02:55:00.919Z,136418.03
2019-05-12T02:57:34.414Z,134303.19
2019-05-12T03:00:07.638Z,133544.28
2019-05-12T03:03:05.783Z,135174.81
2019-05-12T03:05:38.555Z,135037.91
2019-05-12T03:08:08.313Z,133085.31
2019-05-12T03:10:37.973Z,132923.22
2019-05-12T03:13:07.616Z,133268.75
2019-05-12T03:15:37.740Z,132576.67
2019-05-12T03:18:07.771Z,131159.73
2019-05-12T03:20:37.674Z,134451.56
2019-05-12T03:23:07.356Z,134451.56
2019-05-12T03:25:37.507Z,133671.86
2019-05-12T03:28:09.139Z,131057.46
2019-05-12T03:30:40.704Z,130931.83
2019-05-12T03:33:12.125Z,128819.41
2019-05-12T03:35:50.740Z,128855.55
2019-05-12T03:38:14.864Z,128980.91
2019-05-12T03:40:45.279Z,128144.50
2019-05-12T03:43:17.212Z,128672.57
2019-05-12T03:45:46.858Z,131778.34
2019-05-12T03:48:16.534Z,132376.62
2019-05-12T03:50:46.458Z,130609.55
2019-05-12T03:53:16.416Z,132523.13
2019-05-12T03:55:47.198Z,132547.81
2019-05-12T03:58:17.224Z,130603.33
2019-05-12T04:00:46.995Z,131867.45
2019-05-12T04:03:16.632Z,129981.25
2019-05-12T04:05:46.297Z,129227.34
2019-05-12T04:08:16.267Z,127579.78
2019-05-12T04:10:46.210Z,127220.66
2019-05-12T04:13:16.001Z,127275.50
2019-05-12T04:15:46.110Z,125394.59
2019-05-12T04:18:16.683Z,127747.41
2019-05-12T04:20:47.073Z,131827.30
2019-05-12T04:23:16.716Z,132986.16
2019-05-12T04:25:52.780Z,135476.50
2019-05-12T04:28:17.765Z,135290.30
2019-05-12T04:30:47.494Z,134991.00
2019-05-12T04:33:17.144Z,134475.83
2019-05-12T04:35:46.825Z,134587.98
2019-05-12T04:38:16.474Z,135474.19
2019-05-12T04:40:46.133Z,136005.44
2019-05-12T04:43:15.785Z,136544.95
2019-05-12T04:45:45.598Z,135216.03
2019-05-12T04:48:20.326Z,134045.58
2019-05-12T04:50:46.647Z,132280.22
2019-05-12T04:53:16.415Z,132785.20
2019-05-12T04:56:05.455Z,132395.61
2019-05-12T04:58:18.981Z,132424.67
2019-05-12T05:00:48.629Z,133094.08
2019-05-12T05:03:18.275Z,133237.22
2019-05-12T05:05:47.937Z,131498.36
2019-05-12T05:08:19.887Z,131059.08
2019-05-12T05:10:49.099Z,129618.05
2019-05-12T05:13:18.757Z,127025.08
2019-05-12T05:15:48.521Z,126600.71
2019-05-12T05:18:18.168Z,126741.42
2019-05-12T05:20:47.840Z,127526.42
2019-05-12T05:23:17.566Z,123928.12
2019-05-12T05:25:47.207Z,121144.59
2019-05-12T05:28:16.867Z,123256.92
2019-05-12T05:30:46.549Z,123081.84
2019-05-12T05:33:16.192Z,121200.41
2019-05-12T05:35:45.860Z,121403.49
2019-05-12T05:38:20.506Z,118448.12
2019-05-12T05:40:47.012Z,118049.75
2019-05-12T05:43:18.552Z,118390.16
2019-05-12T05:45:48.047Z,116670.58
2019-05-12T05:48:17.696Z,115355.17
2019-05-12T05:50:47.344Z,114309.91
2019-05-12T05:53:19.457Z,115959.65
2019-05-12T05:55:50.313Z,117441.37
2019-05-12T05:58:19.796Z,117036.62
2019-05-12T06:00:54.798Z,115597.28
2019-05-12T06:03:26.166Z,114648.09
2019-05-12T06:05:53.464Z,111836.46
2019-05-12T06:08:23.762Z,111597.22
2019-05-12T06:10:53.932Z,115473.88
2019-05-12T06:13:27.366Z,113189.98
2019-05-12T06:15:54.905Z,111088.62
2019-05-12T06:18:24.569Z,116022.89
2019-05-12T06:20:54.289Z,116645.18
2019-05-12T06:23:24.133Z,115512.55
2019-05-12T06:25:54.920Z,113696.58
2019-05-12T06:28:24.629Z,116046.23
2019-05-12T06:30:54.914Z,116454.16
2019-05-12T06:33:31.881Z,117672.16
2019-05-12T06:35:57.039Z,115881.08
2019-05-12T06:38:30.955Z,119354.34
2019-05-12T06:40:58.071Z,120012.22
2019-05-12T06:43:29.112Z,119695.27
2019-05-12T06:46:00.611Z,120814.41
2019-05-12T06:48:33.221Z,118849.43
2019-05-12T06:51:04.033Z,115712.63
2019-05-12T06:53:33.807Z,119666.23
2019-05-12T06:56:04.445Z,116435.20
2019-05-12T06:58:34.589Z,113870.91
2019-05-12T07:01:10.156Z,113805.45
2019-05-12T07:03:37.290Z,114584.58
2019-05-12T07:06:09.084Z,117153.23
2019-05-12T07:08:38.649Z,114954.03
2019-05-12T07:11:08.423Z,117957.28
2019-05-12T07:13:38.068Z,115850.98
2019-05-12T07:16:19.895Z,113623.67
2019-05-12T07:18:47.741Z,113342.52
2019-05-12T07:21:20.253Z,114350.09
2019-05-12T07:23:53.329Z,113417.73
2019-05-12T07:26:23.507Z,116287.34
2019-05-12T07:28:54.099Z,116228.78
2019-05-12T07:31:23.876Z,115445.43
2019-05-12T07:33:54.177Z,116635.00
2019-05-12T07:36:25.341Z,116792.45
2019-05-12T07:39:03.902Z,115373.16
2019-05-12T07:41:34.051Z,114275.83
2019-05-12T07:44:04.132Z,113254.08
2019-05-12T07:46:34.353Z,112065.92
2019-05-12T07:49:04.105Z,110634.78
2019-05-12T07:51:38.304Z,109294.73
2019-05-12T07:54:05.158Z,112079.54
2019-05-12T07:56:35.871Z,112712.51
2019-05-12T07:59:05.653Z,112271.58
2019-05-12T08:01:44.099Z,108273.32
2019-05-12T08:04:06.671Z,106551.70
2019-05-12T08:06:41.597Z,108301.36
2019-05-12T08:09:08.391Z,106634.41
2019-05-12T08:11:39.030Z,111975.17
2019-05-12T08:14:13.834Z,104331.06
2019-05-12T08:16:40.085Z,106306.66
2019-05-12T08:19:14.936Z,98682.72
2019-05-12T08:21:43.925Z,93775.06
2019-05-12T08:24:14.311Z,98954.70
2019-05-12T08:26:44.150Z,90653.38
2019-05-12T08:29:16.900Z,89900.48
2019-05-12T08:31:45.171Z,79394.75
2019-05-12T08:34:14.917Z,82600.17
2019-05-12T08:36:52.937Z,90660.10
2019-05-12T08:39:21.222Z,85464.86
2019-05-12T08:41:47.413Z,84020.30
2019-05-12T08:44:17.637Z,82413.30
2019-05-12T08:46:51.801Z,76926.78
2019-05-12T08:49:18.798Z,79881.84
2019-05-12T08:51:49.609Z,70187.68
2019-05-12T08:54:19.836Z,63044.77
2019-05-12T08:56:51.003Z,63530.78
2019-05-12T08:59:24.984Z,69596.20
2019-05-12T09:01:54.088Z,69944.54
2019-05-12T09:04:25.998Z,66037.77
2019-05-12T09:06:59.685Z,61523.14
2019-05-12T09:09:27.312Z,65258.77
2019-05-12T09:11:57.176Z,82469.13
2019-05-12T09:14:27.305Z,76892.85
2019-05-12T09:17:02.175Z,82060.97
2019-05-12T09:19:28.363Z,68548.24
2019-05-12T09:21:59.243Z,72717.32
2019-05-12T09:24:28.903Z,74952.55
2019-05-12T09:26:58.978Z,72792.36
2019-05-12T09:29:29.952Z,66801.97
2019-05-12T09:32:07.390Z,56711.07
2019-05-12T09:34:31.093Z,78805.13
2019-05-12T09:37:01.112Z,68762.02
2019-05-12T09:39:34.094Z,64912.29
2019-05-12T09:42:03.787Z,63538.75
2019-05-12T09:44:35.116Z,66378.95
2019-05-12T09:47:07.617Z,50508.19
2019-05-12T09:49:39.461Z,54124.54
2019-05-12T09:52:07.628Z,62454.82
2019-05-12T09:54:40.798Z,39878.48
2019-05-12T09:57:08.673Z,40203.09
2019-05-12T09:59:38.475Z,42557.92
2019-05-12T10:02:10.485Z,39056.16
2019-05-12T10:04:39.523Z,36205.61
2019-05-12T10:07:09.335Z,24026.45
2019-05-12T10:09:38.985Z,14953.91
2019-05-12T10:12:08.649Z,3292.66
2019-05-12T10:14:40.801Z,1391.11
2019-05-12T10:17:10.166Z,-4664.91
2019-05-12T10:19:39.814Z,6668.70
2019-05-12T10:22:09.473Z,3112.28
2019-05-12T10:24:43.024Z,-1693.91
2019-05-12T10:27:13.773Z,1649.98
2019-05-12T10:29:43.725Z,1291.04
2019-05-12T10:32:13.580Z,3112.02
2019-05-12T10:34:44.358Z,8777.07
2019-05-12T10:37:19.247Z,8658.00
2019-05-12T10:39:47.100Z,5076.88
2019-05-12T10:42:16.768Z,10943.73
2019-05-12T10:44:46.433Z,21619.71
2019-05-12T10:47:16.085Z,19383.50
2019-05-12T10:49:45.759Z,11174.95
2019-05-12T10:52:15.422Z,-23126.01
2019-05-12T10:54:45.069Z,-23121.71
2019-05-12T10:57:16.275Z,-22785.75
2019-05-12T10:59:48.665Z,-20476.76
2019-05-12T11:02:26.625Z,-18148.95
2019-05-12T11:04:54.149Z,-16162.68
2019-05-12T11:07:28.014Z,-14169.20
2019-05-12T11:09:55.506Z,-11669.07
2019-05-12T11:12:29.005Z,-10000.69
2019-05-12T11:15:01.245Z,-10989.52
2019-05-12T11:17:40.274Z,-9991.07
2019-05-12T11:20:10.188Z,-9661.90
2019-05-12T11:22:39.846Z,-6658.72
2019-05-12T11:25:09.509Z,-3153.21
2019-05-12T11:27:39.178Z,-2983.05
2019-05-12T11:30:08.984Z,-3987.35
2019-05-12T11:32:38.628Z,-1481.11
2019-05-12T11:35:08.509Z,1025.48
2019-05-12T11:37:38.165Z,1863.04
2019-05-12T11:40:08.162Z,1026.09
2019-05-12T11:42:37.811Z,2198.70
2019-05-12T11:45:09.022Z,8388.11
2019-05-12T11:47:38.664Z,8731.20
2019-05-12T11:50:09.996Z,13937.77
2019-05-12T11:52:39.905Z,18253.35
2019-05-12T11:55:09.755Z,22431.56
2019-05-12T11:57:39.440Z,22509.16
2019-05-12T12:00:13.622Z,24615.40
2019-05-12T12:02:43.765Z,33542.79
2019-05-12T12:05:13.918Z,33206.33
2019-05-12T12:07:50.674Z,29244.72
2019-05-12T12:10:15.262Z,54682.49
2019-05-12T12:12:49.148Z,51440.90
2019-05-12T12:15:20.249Z,65750.05
2019-05-12T12:17:48.713Z,66185.44
2019-05-12T12:20:22.426Z,64426.44
2019-05-12T12:22:49.981Z,83565.44
2019-05-12T12:25:23.286Z,104774.36
2019-05-12T12:27:53.747Z,99557.30
2019-05-12T12:30:23.816Z,114238.13
2019-05-12T12:33:00.167Z,126567.55
2019-05-12T12:35:26.574Z,139768.83
2019-05-12T12:37:57.480Z,126149.81
2019-05-12T12:40:28.803Z,146844.08
2019-05-12T12:42:58.611Z,147995.42
2019-05-12T12:45:45.529Z,152241.08
2019-05-12T12:48:19.401Z,151985.78
2019-05-12T12:50:47.607Z,152356.03
2019-05-12T12:53:17.338Z,152087.89
2019-05-12T12:55:47.003Z,151927.06
2019-05-12T12:58:21.263Z,152302.36
2019-05-12T13:00:53.755Z,152216.81
2019-05-12T13:03:24.527Z,152243.66
2019-05-12T13:05:50.796Z,152391.80
2019-05-12T13:08:22.348Z,152630.77
2019-05-12T13:10:54.123Z,152803.41
2019-05-12T13:13:24.535Z,152798.31
2019-05-12T13:15:54.447Z,153429.25
2019-05-12T13:18:32.630Z,153622.72
2019-05-12T13:20:58.045Z,152667.83
2019-05-12T13:23:36.950Z,154394.81
2019-05-12T13:25:58.246Z,154511.63
2019-05-12T13:28:27.911Z,155084.66
2019-05-12T13:31:07.965Z,155626.25
2019-05-12T13:33:29.527Z,155281.38
2019-05-12T13:35:59.769Z,155676.41
2019-05-12T13:38:30.543Z,156535.72
2019-05-12T13:41:04.236Z,156142.63
2019-05-12T13:43:35.442Z,155711.19
2019-05-12T13:46:07.275Z,154320.31
2019-05-12T13:48:37.528Z,153640.63
2019-05-12T13:51:12.603Z,155908.19
2019-05-12T13:53:46.344Z,156082.03
2019-05-12T13:56:13.664Z,156201.89
2019-05-12T13:58:45.935Z,156562.80
2019-05-12T14:01:20.239Z,156730.42
2019-05-12T14:03:50.633Z,156770.41
2019-05-12T14:06:23.026Z,156517.64
2019-05-12T14:08:53.612Z,156812.98
2019-05-12T14:11:24.488Z,157391.23
2019-05-12T14:13:54.437Z,157396.38
2019-05-12T14:16:24.367Z,157699.88
2019-05-12T14:18:56.893Z,158260.81
2019-05-12T14:21:27.483Z,157187.22
2019-05-12T14:23:58.951Z,156810.44
2019-05-12T14:26:28.894Z,156695.64
2019-05-12T14:29:01.200Z,157142.02
2019-05-12T14:31:36.323Z,157843.33
2019-05-12T14:34:04.299Z,157936.34
2019-05-12T14:36:34.279Z,158103.08
2019-05-12T14:39:10.142Z,157024.56
2019-05-12T14:41:44.577Z,156326.88
2019-05-12T14:44:13.563Z,157322.77
2019-05-12T14:46:46.309Z,157232.37
2019-05-12T14:49:14.756Z,155350.86
2019-05-12T14:51:45.355Z,156766.53
2019-05-12T14:54:15.286Z,157251.70
2019-05-12T14:56:53.013Z,154767.22
2019-05-12T14:59:17.185Z,154609.20
2019-05-12T15:01:57.389Z,153666.23
2019-05-12T15:04:24.872Z,153709.81
2019-05-12T15:06:50.747Z,153271.72
2019-05-12T15:09:21.927Z,153042.63
2019-05-12T15:11:52.338Z,154045.78
2019-05-12T15:14:24.555Z,154721.00
2019-05-12T15:16:55.030Z,153412.56
2019-05-12T15:19:27.795Z,153185.91
2019-05-12T15:22:01.606Z,155025.52
2019-05-12T15:24:28.622Z,155704.72
2019-05-12T15:27:00.684Z,154485.92
2019-05-12T15:29:33.662Z,154339.62
2019-05-12T15:32:04.058Z,153891.86
2019-05-12T15:34:33.917Z,153848.27
2019-05-12T15:37:04.125Z,153325.47
2019-05-12T15:39:34.003Z,153059.25
2019-05-12T15:42:05.224Z,152871.19
2019-05-12T15:44:37.008Z,152551.52
2019-05-12T15:47:06.266Z,152519.56
2019-05-12T15:49:37.051Z,152816.19
2019-05-12T15:52:06.779Z,152949.19
2019-05-12T15:54:45.636Z,153022.16
2019-05-12T15:57:09.347Z,152982.44
2019-05-12T15:59:38.994Z,152849.42
2019-05-12T16:02:14.632Z,152963.25
2019-05-12T16:04:42.817Z,152811.08
2019-05-12T16:07:14.055Z,152757.31
2019-05-12T16:09:45.436Z,152864.78
2019-05-12T16:12:19.927Z,152752.20
2019-05-12T16:14:45.749Z,152780.33
2019-05-12T16:17:18.943Z,152694.69
2019-05-12T16:19:47.746Z,152666.56
2019-05-12T16:22:17.410Z,152855.83
2019-05-12T16:24:48.840Z,153048.98
2019-05-12T16:27:18.459Z,153002.91
2019-05-12T16:29:50.044Z,152805.94
2019-05-12T16:32:26.783Z,152785.44
2019-05-12T16:34:50.893Z,152637.19
2019-05-12T16:37:25.122Z,152583.52
2019-05-12T16:39:54.029Z,152499.12
2019-05-12T16:42:23.690Z,152649.95
2019-05-12T16:44:56.184Z,152744.53
2019-05-12T16:47:29.081Z,152602.66
2019-05-12T16:49:56.154Z,152555.34
2019-05-12T16:52:25.815Z,152497.81
2019-05-12T16:54:55.468Z,152385.44
2019-05-12T16:57:26.122Z,152361.17
2019-05-12T17:00:02.359Z,152419.91
2019-05-12T17:02:38.470Z,152476.12
2019-05-12T17:04:58.543Z,152219.39
2019-05-12T17:07:28.216Z,152335.59
2019-05-12T17:10:02.866Z,152211.72
2019-05-12T17:12:32.013Z,152138.97
2019-05-12T17:15:00.640Z,152146.62
2019-05-12T17:17:30.289Z,152099.38
2019-05-12T17:20:01.122Z,152055.94
2019-05-12T17:22:30.774Z,152008.75
2019-05-12T17:25:00.449Z,152008.75
2019-05-12T17:27:30.099Z,152013.84
2019-05-12T17:29:59.772Z,152018.94
2019-05-12T17:32:29.433Z,151947.47
2019-05-12T17:34:59.163Z,151936.03
2019-05-12T17:37:31.349Z,151896.47
2019-05-12T17:40:00.205Z,151835.25
2019-05-12T17:42:29.941Z,151798.28
2019-05-12T17:44:59.586Z,151745.94
2019-05-12T17:47:32.055Z,151745.94
2019-05-12T17:50:08.421Z,151700.00
2019-05-12T17:52:33.726Z,151654.13
2019-05-12T17:55:10.738Z,151693.66
2019-05-12T17:57:36.115Z,151643.91
2019-05-12T18:00:10.656Z,151668.13
2019-05-12T18:02:39.951Z,151621.00
2019-05-12T18:05:12.315Z,151692.34
2019-05-12T18:07:41.510Z,151651.56
2019-05-12T18:10:13.443Z,151643.91
2019-05-12T18:12:45.112Z,151610.78
2019-05-12T18:15:15.854Z,151557.27
2019-05-12T18:17:49.863Z,151544.53
2019-05-12T18:20:18.080Z,151462.94
2019-05-12T18:22:47.806Z,151483.31
2019-05-12T18:25:21.967Z,151414.52
2019-05-12T18:27:50.983Z,151432.33
2019-05-12T18:30:20.876Z,151397.97
2019-05-12T18:32:54.978Z,151390.31
2019-05-12T18:35:21.911Z,151343.16
2019-05-12T18:37:54.004Z,151297.33
2019-05-12T18:40:24.443Z,151274.39
2019-05-12T18:42:54.334Z,151315.14
2019-05-12T18:45:24.136Z,151304.94
2019-05-12T18:47:53.972Z,151358.47
2019-05-12T18:50:27.111Z,151282.03
2019-05-12T18:52:56.417Z,151302.41
2019-05-12T18:55:29.405Z,151280.73
2019-05-12T18:57:57.509Z,151250.20
2019-05-12T19:00:27.233Z,151219.63
2019-05-12T19:02:59.628Z,151203.08
2019-05-12T19:05:30.848Z,151205.64
2019-05-12T19:07:59.715Z,151166.11
2019-05-12T19:10:29.406Z,151214.53
2019-05-12T19:13:01.931Z,151259.11
2019-05-12T19:15:31.313Z,151203.08
2019-05-12T19:18:03.723Z,151180.14
2019-05-12T19:20:36.188Z,151164.84
2019-05-12T19:23:04.993Z,151227.27
2019-05-12T19:25:35.804Z,151192.91
2019-05-12T19:28:10.352Z,151195.44
2019-05-12T19:30:37.512Z,151141.92
2019-05-12T19:33:10.682Z,151105.02
2019-05-12T19:35:38.692Z,151088.47
2019-05-12T19:38:08.388Z,151065.55
2019-05-12T19:40:38.081Z,151089.72
2019-05-12T19:43:08.461Z,151064.28
2019-05-12T19:45:38.248Z,151035.03
2019-05-12T19:48:07.943Z,150971.39
2019-05-12T19:50:37.680Z,150944.66
2019-05-12T19:53:10.267Z,150938.33
2019-05-12T19:55:38.707Z,150970.14
2019-05-12T19:58:12.607Z,150968.83
2019-05-12T20:00:39.724Z,150970.14
2019-05-12T20:03:09.539Z,150933.20
2019-05-12T20:05:40.624Z,150976.47
2019-05-12T20:08:10.351Z,150948.47
2019-05-12T20:10:44.670Z,150973.91
2019-05-12T20:13:13.660Z,150966.31
2019-05-12T20:15:43.776Z,150986.67
2019-05-12T20:18:14.688Z,150892.50
2019-05-12T20:20:44.939Z,150896.31
2019-05-12T20:23:14.786Z,150931.94
2019-05-12T20:25:44.508Z,150869.62
2019-05-12T20:28:14.744Z,150864.50
2019-05-12T20:30:44.511Z,150892.50
2019-05-12T20:33:14.244Z,150840.30
2019-05-12T20:35:49.093Z,150919.22
2019-05-12T20:38:16.347Z,150869.62
2019-05-12T20:40:46.003Z,150826.31
2019-05-12T20:43:15.652Z,150785.63
2019-05-12T20:45:45.881Z,150779.25
2019-05-12T20:48:19.658Z,150804.72
2019-05-12T20:50:47.126Z,150827.58
2019-05-12T20:53:25.272Z,150784.33
2019-05-12T20:55:49.951Z,150818.69
2019-05-12T20:58:19.769Z,150813.61
2019-05-12T21:00:50.769Z,150750.02
2019-05-12T21:03:20.763Z,150677.53
2019-05-12T21:05:56.496Z,150729.67
2019-05-12T21:08:23.675Z,150763.98
2019-05-12T21:10:54.129Z,150720.78
2019-05-12T21:13:27.163Z,150709.33
2019-05-12T21:15:55.523Z,150694.06
2019-05-12T21:18:25.194Z,150710.59
2019-05-12T21:20:55.043Z,150647.00
2019-05-12T21:23:24.793Z,150648.31
2019-05-12T21:25:58.130Z,150663.58
2019-05-12T21:28:25.835Z,150602.52
2019-05-12T21:30:55.982Z,150640.69
2019-05-12T21:33:25.745Z,150605.08
2019-05-12T21:35:55.401Z,150619.05
2019-05-12T21:38:29.375Z,150612.72
2019-05-12T21:40:56.459Z,150565.67
2019-05-12T21:43:26.118Z,150566.97
2019-05-12T21:45:55.770Z,150526.27
2019-05-12T21:48:28.646Z,150575.86
2019-05-12T21:50:56.828Z,150565.67
2019-05-12T21:53:26.479Z,150536.45
2019-05-12T21:56:04.085Z,150513.56
2019-05-12T21:58:27.667Z,150549.16
2019-05-12T22:01:05.152Z,150513.56
2019-05-12T22:03:33.606Z,150511.05
2019-05-12T22:06:14.837Z,150586.00
2019-05-12T22:08:34.745Z,150625.42
2019-05-12T22:11:09.496Z,150617.78
2019-05-12T22:13:36.308Z,150544.08
2019-05-12T22:16:07.588Z,150541.53
2019-05-12T22:18:37.229Z,150584.75
2019-05-12T22:21:07.226Z,150579.67
2019-05-12T22:23:36.927Z,150517.38
2019-05-12T22:26:06.609Z,150467.84
2019-05-12T22:28:40.496Z,150411.88
2019-05-12T22:31:07.659Z,150504.67
2019-05-12T22:33:40.931Z,150518.69
2019-05-12T22:36:24.456Z,150523.75
2019-05-12T22:38:40.110Z,150466.58
2019-05-12T22:41:09.848Z,150411.88
2019-05-12T22:43:41.526Z,150381.38
2019-05-12T22:46:10.899Z,150381.38
2019-05-12T22:48:40.803Z,150348.36
2019-05-12T22:51:15.207Z,150328.05
2019-05-12T22:53:43.512Z,150345.84
2019-05-12T22:56:17.810Z,150297.59
2019-05-12T22:58:44.610Z,150282.34
2019-05-12T23:01:14.594Z,150348.36
2019-05-12T23:03:51.373Z,150424.58
2019-05-12T23:06:23.690Z,150397.94
2019-05-12T23:08:49.240Z,150357.25
2019-05-12T23:11:23.712Z,150404.25
2019-05-12T23:13:53.356Z,150382.67
2019-05-12T23:16:26.141Z,150406.81
2019-05-12T23:18:53.743Z,150432.20
2019-05-12T23:21:24.211Z,150434.77
2019-05-12T23:23:57.467Z,150364.88
2019-05-12T23:26:26.027Z,150342.03
2019-05-12T23:28:55.678Z,150281.09
2019-05-12T23:31:30.007Z,149555.72
2019-05-12T23:33:56.714Z,142193.78
2019-05-12T23:36:35.639Z,136576.33
2019-05-12T23:39:00.365Z,127716.20
2019-05-12T23:41:29.217Z,121726.85
2019-05-12T23:43:58.946Z,108884.27
2019-05-12T23:46:28.612Z,103204.93
2019-05-12T23:48:58.248Z,100926.92
2019-05-12T23:51:29.297Z,98859.02
2019-05-12T23:53:58.965Z,98240.91
2019-05-12T23:56:28.704Z,83625.39
2019-05-12T23:58:58.370Z,65375.96
